Aérodrome :
LOGIN :

S'inscrire | Disclaimer

   EN    FR    IT 

 










Légende :    VFR   VFR Marginal   IFR   IFR Intensif   IFR Très Intensif
Visi : 
Plafond : 
>= 8 km
>= 3000ft
5 à 8 km
1000 à 3000 ft
1500m à 5 km
500 à 1000 ft
800 à 1500m
200 à 500 ft
< 800m
< 200 ft
Symboles :   Orages  Brouillard  Fortes neiges  Fortes précipitations  Vent > 20 kt
SIGMETs :   Divers  Orages  Givrage  Turbulence  Onde Orograph.  Cendres Volcan.







- Altitude de l'aérodrome : 1197 ft
- Code IATA : SPM


ETAD - Spangdahlem Ab

DERNIER METAR :
  • 280006Z AUTO 26006KT 9999 BKN055 13/12 A2987 RMK AO2 SLP099 TSNO $

METARs EXPIRÉS :
  • 272358Z AUTO 25005KT 9999 SCT055 13/13 A2987 RMK AO2 SLP099 T01320126 10169 20132 52017 TSNO $
  • 272258Z AUTO 26004KT 9999 FEW110 14/13 A2985 RMK AO2 SLP092 T01370131 402130137 TSNO $
  • 272158Z AUTO 26006KT 9999 SCT110 14/14 A2984 RMK AO2 SLP090 T01440135 TSNO $

TAF AMD TAF ETAD
Valide du 27 à 20h jusqu'au 29 à 01h UTC


272006Z 2720/2901 26009KT 9999 BKN110 QNH2979INS
BECMG 2720/2721 24009KT 9000 -SHRA BKN005 QNH2980INS
TEMPO 2721/2801 BKN010
BECMG 2801/2802 24009KT 9999 NSW BKN007 QNH2985INS
TEMPO 2802/2805 BKN010
BECMG 2805/2806 25009KT 9999 BKN005 QNH2991INS
TEMPO 2805/2808 BKN010
BECMG 2807/2808 24009KT 9999 SCT010 BKN015 QNH2994INS
BECMG 2810/2811 24012KT 9999 BKN020 QNH2996INS TX21/2815Z TN12/2803Z LAST NO AMDS AFT 2720 NEXT 2804
Pas de NOTAMs connus pour ce terrain.



MET'MAP, la Météo Aéronautique d'un coup d'oeil ! - Copyright ORBIFLY Décembre 2007 - Disclaimer

ORBIFLY MET'MAP TEAM :

Programmation & Développement : Alexandra Zaïnal
Conception & Développement : Baudouin d'Aumeries
Co-Programmation & Développement : Marc-Olivier Méhu
Soutien technique & logistique : Manuel Goepfert

Contact : metmap@orbifly.com




SOURCES & CREDITS :

   NOAA